メインページ
METAR-TAF:

METAR-TAF

空港 :

グアテマラシティ, グアテマラ

ラ・アウロラ国際空港

緯度: 14-35N, 経度: 090-31W, 海抜: 1489m

現時点の気象観測

当レポートは1時間0分前の05:00(UTC)に作成
無風
気温 17°C
湿度 82%
気圧 1027 hPa
視程: 7000m
高度1200ftの雲は散在している
高度8000ftの雲はほとんどない

METAR: MGGT 250500Z 00000KT 7000 SCT012 17/14 Q1027 A3033 FEW080 BR

時間: 00:00 (06:00 UTC)

予報

当レポートは1時間0分前の05:00(UTC)に作成
予報は25日の 06時(UTC)から 26日の 06時(UTC)まで有効
の風 kt
視程: 7000m
高度1200ftの雲は散在している
確率 40%
25日の 08時(UTC)から 25日の 14時(UTC)まで
視程: 4000m
高度800ftの雲は散在している
25日の 15時(UTC)から 25日の 17時(UTC)まで徐々に
北/北東の風 8kt
視程: 8000m
高度1800ftの雲はほとんどない
25日の 20時(UTC)から 25日の 24時(UTC)まで一時的に
の風 8kt
視程: 7000m
高度1800ftの雲は散在している
高度2500ftの雲はほとんどない, 積乱雲.
近辺でにわか雨
26日の 01時(UTC)から 26日の 03時(UTC)まで徐々に
変向風 3kt
高度1600ftの雲は散在している

TAF: MGGT 250500Z 2506/2606 00000KT 7000 SCT012 TX25/2520Z TN14/2512Z PROB40 2508/2514 4000 BR SCT008 BECMG 2515/2517 03008KT 8000 FEW018 TEMPO 2520/2524 18008KT 7000 VCSH SCT018 FEW025CB BECMG 2601/2603 VRB03KT SCT016

4,000以上の空港の気象観測と天気予報(METAR報とTAF報)

利用可能な観測所は地図上に黄色い丸と赤い丸で示す。

丸の上にカーソルを重ねると観測所名を参照できる。

次にクリックすると気象観測と天気予報を参照できる。

マップの切り替え:黒色「×」印の緑ボタンをクリックして拡大、「-」印の緑ボタンをクリックして縮小、緑色の三角印をクリックして隣りの地図に切り替え


METAR-TAF: